Aviation Digital Data Service (ADDS)

Output produced by METARs form (0126 UTC 25 October 2014)
found at http://aviationweather.gov/adds/metars/
 
KHUL 250102Z 2501/2524 36008KT 6SM -SHRA OVC022 
     FM250400 35006KT P6SM VCSH OVC025 
     FM250600 34004KT P6SM OVC035 
     FM252000 28004KT P6SM BKN080